Time;durP1;ratioP1;P1;durP2;ratioP2;P2;SDS_P1;SDS_P2;PMS_P1;PMS_P2;Temp;Humidity;BMP_temperature;BMP_pressure;BME280_temperature;BME280_humidity;BME280_pressure;Samples;Min_cycle;Max_cycle;Signal;HPM_P1;HPM_P2
2022/08/11 00:00:43;;;;;;;7.35;1.38;;;19.60;53.70;;;;;;6298406;28;20056;-77
2022/08/11 00:03:48;;;;;;;1.88;0.85;;;19.50;53.80;;;;;;6298749;28;20040;-77
2022/08/11 00:06:51;;;;;;;2.50;1.50;;;19.50;53.90;;;;;;6298983;28;20503;-77
2022/08/11 00:09:54;;;;;;;4.68;1.10;;;19.40;54.20;;;;;;6298626;28;20049;-76
2022/08/11 00:12:59;;;;;;;2.00;0.77;;;19.30;54.00;;;;;;6298429;28;20040;-76
2022/08/11 00:16:02;;;;;;;1.88;1.15;;;19.30;54.20;;;;;;6297881;28;20040;-77
2022/08/11 00:19:05;;;;;;;1.23;0.73;;;19.30;54.40;;;;;;6292021;28;20415;-77
2022/08/11 00:22:08;;;;;;;0.82;0.65;;;19.30;54.60;;;;;;6298703;28;20049;-77
2022/08/11 00:25:12;;;;;;;1.70;0.90;;;19.30;54.60;;;;;;6298347;28;20037;-77
2022/08/11 00:28:29;;;;;;;3.10;1.05;;;19.30;54.70;;;;;;6297980;28;20067;-77
2022/08/11 00:31:33;;;;;;;2.53;0.95;;;19.30;54.70;;;;;;6298049;28;20060;-77
2022/08/11 00:34:38;;;;;;;3.83;0.98;;;19.20;54.40;;;;;;6298718;28;20044;-76
2022/08/11 00:37:45;;;;;;;2.00;0.88;;;19.30;54.40;;;;;;6298354;28;20048;-76
2022/08/11 00:41:07;;;;;;;4.75;1.17;;;19.30;54.40;;;;;;6297910;28;20055;-77
2022/08/11 00:44:32;;;;;;;1.55;0.80;;;19.20;54.60;;;;;;6297705;28;20048;-77
2022/08/11 00:47:48;;;;;;;1.63;1.00;;;19.20;55.30;;;;;;6297634;28;20059;-77
2022/08/11 00:51:02;;;;;;;4.40;0.90;;;19.20;55.50;;;;;;6297511;28;20046;-77
2022/08/11 00:54:16;;;;;;;5.57;1.30;;;19.10;55.40;;;;;;6297873;28;20044;-77
2022/08/11 00:57:55;;;;;;;1.95;0.95;;;19.10;55.60;;;;;;6287535;28;20089;-77
2022/08/11 01:01:09;;;;;;;5.15;1.00;;;18.90;56.00;;;;;;6286663;28;20056;-77
2022/08/11 01:04:39;;;;;;;4.30;1.02;;;18.90;55.90;;;;;;6297603;28;20044;-78
2022/08/11 01:08:27;;;;;;;2.55;1.73;;;18.90;56.20;;;;;;6296740;28;20052;-77
2022/08/11 01:11:50;;;;;;;2.92;0.70;;;18.90;56.50;;;;;;6296906;28;20683;-77
2022/08/11 01:15:26;;;;;;;4.03;1.25;;;18.80;56.50;;;;;;6296735;28;20053;-77
2022/08/11 01:19:04;;;;;;;15.38;1.20;;;18.80;56.70;;;;;;6283764;28;20052;-77
2022/08/11 01:22:26;;;;;;;4.80;1.42;;;18.80;56.50;;;;;;6287998;28;20059;-77
2022/08/11 01:26:03;;;;;;;2.50;1.08;;;18.80;56.50;;;;;;6297275;28;20049;-77
2022/08/11 01:29:56;;;;;;;1.52;0.90;;;18.80;56.60;;;;;;6271664;28;20052;-77
2022/08/11 01:33:24;;;;;;;3.25;0.93;;;18.70;56.70;;;;;;6271721;28;20040;-77
2022/08/11 01:37:02;;;;;;;1.45;0.80;;;18.70;56.90;;;;;;6228249;28;20090;-77
2022/08/11 01:40:40;;;;;;;1.65;0.90;;;18.70;57.00;;;;;;6271530;28;20526;-79
2022/08/11 01:47:52;;;;;;;4.25;1.63;;;18.50;57.70;;;;;;6301442;28;20045;-79
2022/08/11 01:51:04;;;;;;;1.67;1.00;;;18.50;57.80;;;;;;6301731;28;20044;-79
2022/08/11 01:54:17;;;;;;;4.70;1.10;;;18.40;58.00;;;;;;6302864;28;20048;-79
2022/08/11 01:57:34;;;;;;;3.65;1.20;;;18.30;58.20;;;;;;6298448;28;20057;-79
2022/08/11 02:00:46;;;;;;;3.53;1.00;;;18.30;58.60;;;;;;6292094;28;20048;-77
2022/08/11 02:03:57;;;;;;;3.13;0.88;;;18.30;58.80;;;;;;6296094;28;20411;-77
2022/08/11 02:07:08;;;;;;;1.85;1.00;;;18.30;58.70;;;;;;6296183;28;20044;-77
2022/08/11 02:13:50;;;;;;;3.45;0.90;;;18.50;58.30;;;;;;6296023;28;20041;-77
2022/08/11 02:17:02;;;;;;;2.72;0.90;;;18.60;58.20;;;;;;6295993;28;20138;-77
2022/08/11 02:23:42;;;;;;;2.45;1.10;;;18.60;58.20;;;;;;6272115;28;20416;-76
2022/08/11 02:26:48;;;;;;;2.25;0.95;;;18.70;58.10;;;;;;6277602;28;20041;-77
2022/08/11 02:30:03;;;;;;;1.30;0.70;;;18.70;58.10;;;;;;6277366;28;20045;-78
2022/08/11 02:33:22;;;;;;;1.60;0.77;;;18.80;57.70;;;;;;6277802;28;20060;-78
2022/08/11 02:36:33;;;;;;;2.10;0.80;;;18.80;57.30;;;;;;6276780;28;20068;-77
2022/08/11 02:39:44;;;;;;;3.53;0.88;;;18.90;57.20;;;;;;6278895;28;20415;-77
2022/08/11 02:43:01;;;;;;;3.03;1.25;;;18.90;57.00;;;;;;6275797;28;20048;-77
2022/08/11 02:46:18;;;;;;;2.08;1.10;;;18.90;57.00;;;;;;6275722;28;20064;-79
2022/08/11 02:49:54;;;;;;;2.15;0.85;;;18.90;56.90;;;;;;6275496;28;20078;-78
2022/08/11 02:53:03;;;;;;;1.67;0.90;;;19.00;56.60;;;;;;6276264;28;20053;-78
2022/08/11 02:56:13;;;;;;;1.83;0.95;;;19.10;56.70;;;;;;6280415;28;20048;-78
2022/08/11 03:02:58;;;;;;;2.80;1.17;;;19.00;56.40;;;;;;6304747;28;20041;-78
2022/08/11 03:06:09;;;;;;;6.38;1.08;;;19.10;56.50;;;;;;6305085;28;20049;-78
2022/08/11 03:09:19;;;;;;;2.17;0.90;;;19.10;56.60;;;;;;6304156;28;20051;-77
2022/08/11 03:19:26;;;;;;;2.85;1.40;;;19.10;56.70;;;;;;6304819;28;20048;-79
2022/08/11 03:22:37;;;;;;;1.42;0.98;;;19.10;56.80;;;;;;6304226;28;20059;-78
2022/08/11 03:25:48;;;;;;;2.92;1.10;;;19.10;56.60;;;;;;6304605;28;20162;-78
2022/08/11 03:29:00;;;;;;;2.85;1.20;;;19.10;56.60;;;;;;6307156;28;20157;-78
2022/08/11 03:32:08;;;;;;;4.70;1.45;;;19.00;56.80;;;;;;6304409;28;20041;-78
2022/08/11 03:35:16;;;;;;;1.75;1.00;;;19.00;57.10;;;;;;6303578;28;20047;-76
2022/08/11 03:38:24;;;;;;;5.07;1.10;;;19.00;57.20;;;;;;6303953;28;20131;-78
2022/08/11 03:41:43;;;;;;;4.95;1.45;;;19.00;57.30;;;;;;6304324;28;20547;-76
2022/08/11 03:45:02;;;;;;;5.93;1.38;;;19.00;57.30;;;;;;6303584;28;20041;-78
2022/08/11 03:48:18;;;;;;;2.67;0.98;;;18.90;57.50;;;;;;6301446;28;20511;-77
2022/08/11 03:51:29;;;;;;;2.67;1.27;;;18.90;57.60;;;;;;6299324;28;20071;-76
2022/08/11 03:54:43;;;;;;;3.65;1.33;;;18.80;57.80;;;;;;6298653;28;20403;-76
2022/08/11 03:58:24;;;;;;;3.95;1.20;;;18.70;58.00;;;;;;6299083;28;20511;-76
2022/08/11 04:01:51;;;;;;;3.53;0.88;;;18.70;58.90;;;;;;6268887;28;20418;-76
2022/08/11 04:05:26;;;;;;;2.35;1.05;;;18.70;58.40;;;;;;6272785;28;20059;-76
2022/08/11 04:09:08;;;;;;;2.53;1.02;;;18.70;58.30;;;;;;6273646;28;20262;-76
2022/08/11 04:12:33;;;;;;;5.40;1.60;;;18.70;58.50;;;;;;6273670;28;20047;-77
2022/08/11 04:16:01;;;;;;;3.50;1.27;;;18.60;58.80;;;;;;6273614;28;20068;-77
2022/08/11 04:19:38;;;;;;;5.40;1.40;;;18.70;58.40;;;;;;6273304;28;20056;-76
2022/08/11 04:23:07;;;;;;;2.10;0.98;;;18.70;58.20;;;;;;6293692;28;20045;-76
2022/08/11 04:26:54;;;;;;;14.35;4.07;;;18.80;58.20;;;;;;6298516;28;20504;-76
2022/08/11 04:30:12;;;;;;;4.78;1.55;;;18.80;58.30;;;;;;6298104;28;20055;-76
2022/08/11 04:33:53;;;;;;;5.20;1.50;;;18.80;58.00;;;;;;6297970;28;20053;-76
2022/08/11 04:37:33;;;;;;;3.03;1.30;;;18.90;57.90;;;;;;6296644;28;20515;-76
2022/08/11 04:41:07;;;;;;;6.15;1.20;;;19.00;57.80;;;;;;6297920;28;20044;-76
2022/08/11 04:44:51;;;;;;;4.32;1.10;;;19.00;57.60;;;;;;6297632;28;20063;-76
2022/08/11 05:04:03;;;;;;;4.47;1.20;;;19.90;56.10;;;;;;6292080;28;20041;-76
2022/08/11 05:07:53;;;;;;;2.08;0.98;;;19.90;55.30;;;;;;6297378;28;20047;-75
2022/08/11 05:11:07;;;;;;;2.30;1.10;;;20.00;54.80;;;;;;6297385;28;20527;-76
2022/08/11 05:34:55;;;;;;;6.28;1.25;;;21.50;51.60;;;;;;6297569;28;20037;-76
2022/08/11 05:58:22;;;;;;;5.72;1.33;;;28.60;38.90;;;;;;6295991;28;20515;-76
2022/08/11 06:01:25;;;;;;;4.90;1.05;;;29.40;37.00;;;;;;6296199;28;20048;-77
2022/08/11 06:04:29;;;;;;;2.88;1.10;;;29.00;37.40;;;;;;6266662;28;20045;-76
2022/08/11 06:07:32;;;;;;;3.65;1.15;;;28.40;38.10;;;;;;6297012;28;20051;-78
2022/08/11 06:10:38;;;;;;;3.85;1.08;;;28.50;38.60;;;;;;6298803;28;20048;-79
2022/08/11 06:13:44;;;;;;;6.55;1.08;;;29.10;37.80;;;;;;6278292;28;20048;-79
2022/08/11 06:16:49;;;;;;;7.90;1.27;;;29.30;36.90;;;;;;6297684;28;20044;-79
2022/08/11 06:19:56;;;;;;;3.13;1.35;;;28.90;37.40;;;;;;6297667;28;20435;-78
2022/08/11 06:23:01;;;;;;;9.38;1.65;;;28.70;37.60;;;;;;6296429;28;20068;-78
2022/08/11 06:26:09;;;;;;;5.43;1.10;;;28.20;38.20;;;;;;6296918;28;20054;-78
2022/08/11 06:29:11;;;;;;;;;;;28.00;38.20;;;;;;6298497;28;20051;-81
2022/08/11 06:32:14;;;;;;;8.25;1.27;;;27.80;38.60;;;;;;6300329;28;19924;-80
2022/08/11 06:35:23;;;;;;;6.93;1.10;;;27.90;38.40;;;;;;6298209;28;20055;-81
2022/08/11 06:38:44;;;;;;;6.40;1.15;;;28.20;38.50;;;;;;6296244;28;20495;-80
2022/08/11 06:41:52;;;;;;;1.85;1.15;;;29.40;37.70;;;;;;6300854;28;20514;-81
2022/08/11 06:45:06;;;;;;;1.80;1.00;;;30.50;35.60;;;;;;6301162;28;20048;-80
2022/08/11 06:48:16;;;;;;;3.42;0.75;;;31.10;34.90;;;;;;6300627;28;20050;-80
2022/08/11 06:51:17;;;;;;;2.67;1.05;;;31.80;34.20;;;;;;6300851;28;20565;-80
2022/08/11 06:54:21;;;;;;;3.15;1.20;;;32.00;34.10;;;;;;6300772;28;20045;-80
2022/08/11 07:00:46;;;;;;;4.55;0.85;;;31.70;33.80;;;;;;6301407;28;20100;-81
2022/08/11 07:04:04;;;;;;;3.30;1.05;;;31.00;34.30;;;;;;6298761;28;20058;-80
2022/08/11 07:31:48;;;;;;;2.53;1.05;;;26.80;40.60;;;;;;6299687;28;20044;-79
2022/08/11 07:34:56;;;;;;;7.47;1.00;;;26.80;41.00;;;;;;6299816;28;20401;-80
2022/08/11 07:38:02;;;;;;;4.25;1.30;;;27.10;41.30;;;;;;6282962;28;20049;-80
2022/08/11 07:41:03;;;;;;;7.93;1.30;;;27.30;40.50;;;;;;6301826;28;20044;-80
2022/08/11 07:44:08;;;;;;;3.65;1.00;;;27.30;40.40;;;;;;6303591;28;20044;-81
2022/08/11 07:53:52;;;;;;;5.30;1.38;;;27.20;40.40;;;;;;6303758;28;20049;-81
2022/08/11 07:56:54;;;;;;;4.55;1.08;;;27.30;40.50;;;;;;6303789;28;20055;-80
2022/08/11 08:19:59;;;;;;;1.30;0.80;;;28.70;38.50;;;;;;6288990;28;20032;-80
2022/08/11 08:23:03;;;;;;;4.22;1.20;;;29.00;38.00;;;;;;6301240;28;20075;-79
2022/08/11 08:26:57;;;;;;;5.85;1.00;;;29.30;37.50;;;;;;6302925;28;20129;-80
2022/08/11 08:32:52;;;;;;;1.65;1.05;;;29.60;37.00;;;;;;6302828;28;20044;-80
2022/08/11 08:36:10;;;;;;;6.80;1.10;;;29.30;37.80;;;;;;6294941;28;20126;-80
2022/08/11 08:39:15;;;;;;;9.95;1.30;;;29.20;37.40;;;;;;6303604;28;20048;-81
2022/08/11 08:42:20;;;;;;;3.10;1.27;;;29.40;37.20;;;;;;6303133;28;20052;-80
2022/08/11 08:45:26;;;;;;;1.92;1.00;;;29.60;36.80;;;;;;6305189;28;20050;-80
2022/08/11 08:48:30;;;;;;;1.90;0.90;;;29.70;36.60;;;;;;6303644;28;20127;-80
2022/08/11 08:51:38;;;;;;;2.70;1.25;;;29.80;36.30;;;;;;6302325;28;20048;-80
2022/08/11 08:54:42;;;;;;;1.67;0.82;;;29.80;35.90;;;;;;6303707;28;20056;-81
2022/08/11 08:57:45;;;;;;;2.13;1.15;;;29.70;36.40;;;;;;6303507;28;20056;-80
2022/08/11 09:00:51;;;;;;;3.83;0.95;;;29.60;36.00;;;;;;6302039;28;20522;-79
2022/08/11 09:03:53;;;;;;;1.50;0.90;;;29.70;35.90;;;;;;6299662;28;20503;-79
2022/08/11 09:06:59;;;;;;;2.58;1.00;;;31.30;34.80;;;;;;6291658;28;20055;-80
2022/08/11 09:10:02;;;;;;;5.72;0.80;;;33.30;32.90;;;;;;6276596;28;20053;-80
2022/08/11 09:13:05;;;;;;;1.27;0.70;;;34.70;31.20;;;;;;6276227;28;20044;-80
2022/08/11 09:16:10;;;;;;;3.40;0.80;;;35.60;30.00;;;;;;6276314;28;20419;-80
2022/08/11 09:19:16;;;;;;;4.05;1.13;;;36.20;29.60;;;;;;6276808;28;20052;-80
2022/08/11 09:29:04;;;;;;;6.70;1.08;;;37.00;29.00;;;;;;6287209;28;20123;-78
2022/08/11 09:32:07;;;;;;;7.65;1.10;;;37.40;28.70;;;;;;6296482;28;20053;-78
2022/08/11 09:35:10;;;;;;;3.88;1.00;;;37.90;28.60;;;;;;6294826;28;20077;-78
2022/08/11 09:41:36;;;;;;;1.63;0.80;;;37.50;28.60;;;;;;6296502;28;20675;-78
2022/08/11 09:44:51;;;;;;;4.72;1.10;;;37.40;28.80;;;;;;6296422;28;20423;-78
2022/08/11 09:47:54;;;;;;;4.38;0.90;;;37.50;28.70;;;;;;6296103;28;20412;-78
2022/08/11 09:50:59;;;;;;;3.33;1.38;;;38.10;28.20;;;;;;6296126;28;20515;-78
2022/08/11 09:54:05;;;;;;;3.95;0.88;;;38.30;27.90;;;;;;6296715;28;20055;-78
2022/08/11 10:00:31;;;;;;;3.75;0.90;;;38.30;28.00;;;;;;6295859;28;20040;-78
2022/08/11 10:03:36;;;;;;;4.57;1.13;;;38.40;27.90;;;;;;6295097;28;20503;-78
2022/08/11 10:10:04;;;;;;;2.72;0.80;;;37.80;28.00;;;;;;6275625;28;20045;-79
2022/08/11 10:13:09;;;;;;;3.43;0.80;;;36.90;28.50;;;;;;6274993;28;20527;-80
2022/08/11 10:16:10;;;;;;;4.43;1.15;;;36.00;29.10;;;;;;6276358;28;20507;-79
2022/08/11 10:19:13;;;;;;;2.08;0.68;;;35.30;28.90;;;;;;6293481;28;20635;-80
2022/08/11 10:35:53;;;;;;;2.10;0.85;;;33.70;30.20;;;;;;6289861;28;20041;-80
2022/08/11 10:38:56;;;;;;;11.60;1.55;;;33.70;30.50;;;;;;6295460;28;20044;-78
2022/08/11 10:48:40;;;;;;;1.05;0.70;;;33.90;30.20;;;;;;6295386;28;20049;-78
2022/08/11 11:01:45;;;;;;;5.75;0.85;;;33.70;29.80;;;;;;6296032;28;20102;-78
2022/08/11 11:05:01;;;;;;;4.80;1.02;;;33.60;29.60;;;;;;6295591;28;20047;-78
2022/08/11 11:18:20;;;;;;;2.28;0.70;;;33.80;29.10;;;;;;6300311;28;20086;-78
2022/08/11 11:21:24;;;;;;;1.63;0.95;;;33.70;28.50;;;;;;6301010;28;20173;-78
2022/08/11 11:24:42;;;;;;;2.85;0.63;;;33.50;28.60;;;;;;6300747;28;20059;-78
2022/08/11 11:27:56;;;;;;;3.75;0.70;;;33.30;28.50;;;;;;6300576;28;20051;-80
2022/08/11 11:31:11;;;;;;;2.35;0.90;;;33.30;28.70;;;;;;6311124;28;20040;-80
2022/08/11 11:34:23;;;;;;;1.35;0.55;;;33.30;28.60;;;;;;6305685;28;20079;-79
2022/08/11 11:37:25;;;;;;;6.82;0.90;;;33.50;28.60;;;;;;6290382;28;20044;-79
2022/08/11 11:40:28;;;;;;;6.32;1.50;;;33.90;28.90;;;;;;6305422;28;20040;-79
2022/08/11 11:43:32;;;;;;;5.57;0.65;;;34.30;28.20;;;;;;6307108;28;20048;-80
2022/08/11 11:46:36;;;;;;;4.15;0.73;;;34.30;28.10;;;;;;6306301;28;20419;-80
2022/08/11 11:49:39;;;;;;;0.70;0.40;;;34.60;27.90;;;;;;6305918;28;20059;-81
2022/08/11 11:52:42;;;;;;;3.45;1.10;;;35.00;28.10;;;;;;6304985;28;20049;-81
2022/08/11 11:55:45;;;;;;;5.55;1.05;;;35.20;27.60;;;;;;6305302;28;20087;-80
2022/08/11 12:02:09;;;;;;;2.67;0.50;;;35.70;27.60;;;;;;6306337;28;20048;-80
2022/08/11 12:05:13;;;;;;;3.15;0.70;;;35.80;27.40;;;;;;6302804;28;20041;-81
2022/08/11 12:08:16;;;;;;;3.42;0.70;;;36.00;27.20;;;;;;6294528;28;20048;-78
2022/08/11 12:14:40;;;;;;;1.48;0.68;;;36.00;27.00;;;;;;6274115;28;20037;-78
2022/08/11 12:17:43;;;;;;;4.00;0.50;;;36.00;26.90;;;;;;6273978;28;20056;-78
2022/08/11 12:20:46;;;;;;;2.80;0.70;;;36.30;26.70;;;;;;6273652;28;20048;-78
2022/08/11 12:27:23;;;;;;;7.43;0.82;;;36.80;26.80;;;;;;6279503;28;20044;-79
2022/08/11 12:30:25;;;;;;;2.50;0.73;;;36.80;26.50;;;;;;6298473;28;20063;-78
2022/08/11 12:33:28;;;;;;;1.83;0.70;;;36.50;26.50;;;;;;6298773;28;20060;-78
2022/08/11 12:36:33;;;;;;;2.05;0.50;;;36.30;26.40;;;;;;6289291;28;20036;-79
2022/08/11 12:46:23;;;;;;;1.33;0.45;;;37.00;26.10;;;;;;6298172;28;20036;-77
2022/08/11 12:52:55;;;;;;;3.05;0.60;;;36.80;25.80;;;;;;6297280;28;20499;-77
2022/08/11 13:06:09;;;;;;;1.25;0.57;;;35.70;26.60;;;;;;6289278;28;20045;-78
2022/08/11 13:09:11;;;;;;;5.25;0.55;;;35.60;26.70;;;;;;6296595;28;20048;-77
2022/08/11 13:15:36;;;;;;;2.83;0.63;;;35.00;26.80;;;;;;6296952;28;20044;-77
2022/08/11 13:18:41;;;;;;;0.75;0.55;;;35.20;26.90;;;;;;6296738;28;20091;-77
2022/08/11 13:21:45;;;;;;;3.67;0.90;;;35.20;26.90;;;;;;6297062;28;20127;-77
2022/08/11 13:24:48;;;;;;;5.18;0.80;;;35.20;27.10;;;;;;6296578;28;20888;-77
2022/08/11 13:27:53;;;;;;;1.58;0.70;;;35.10;26.90;;;;;;6296635;28;20174;-78
2022/08/11 13:31:14;;;;;;;3.28;0.77;;;35.10;26.90;;;;;;6296594;28;20048;-77
2022/08/11 13:34:17;;;;;;;1.52;0.60;;;35.00;27.00;;;;;;6297156;28;20048;-77
2022/08/11 13:37:22;;;;;;;1.30;0.73;;;35.20;27.30;;;;;;6282332;28;20041;-77
2022/08/11 13:40:25;;;;;;;2.65;0.70;;;35.50;26.80;;;;;;6296403;28;20051;-77
2022/08/11 13:43:28;;;;;;;2.28;0.60;;;35.40;26.70;;;;;;6296557;28;20060;-78
2022/08/11 13:46:30;;;;;;;2.78;0.50;;;35.50;27.20;;;;;;6296523;28;20051;-77
2022/08/11 13:49:33;;;;;;;3.72;1.00;;;35.50;26.90;;;;;;6296571;28;20052;-77
2022/08/11 13:52:39;;;;;;;5.95;0.80;;;35.30;26.50;;;;;;6291018;28;20407;-77
2022/08/11 13:55:42;;;;;;;1.38;0.88;;;35.00;26.60;;;;;;6289113;28;20040;-76
2022/08/11 13:58:44;;;;;;;4.15;0.80;;;34.80;26.80;;;;;;6271603;28;20044;-79
2022/08/11 14:01:49;;;;;;;3.83;0.73;;;34.70;27.00;;;;;;6271877;28;20072;-77
2022/08/11 14:04:55;;;;;;;1.58;0.50;;;35.10;26.90;;;;;;6275451;28;20044;-76
2022/08/11 14:08:01;;;;;;;1.55;0.68;;;35.00;27.00;;;;;;6279182;28;20044;-77
2022/08/11 14:14:27;;;;;;;5.25;0.63;;;34.50;26.90;;;;;;6295869;28;20119;-77
2022/08/11 14:17:31;;;;;;;1.50;0.60;;;34.40;27.20;;;;;;6289663;28;20041;-77
2022/08/11 14:23:58;;;;;;;3.53;0.75;;;34.80;26.90;;;;;;6294463;28;20036;-77
2022/08/11 14:27:00;;;;;;;1.77;0.40;;;35.00;26.70;;;;;;6295873;28;20052;-77
2022/08/11 14:30:02;;;;;;;3.22;0.70;;;34.80;26.30;;;;;;6296894;28;20059;-77
2022/08/11 14:33:04;;;;;;;2.78;0.40;;;34.60;26.50;;;;;;6296391;28;20426;-77
2022/08/11 14:36:10;;;;;;;1.83;1.20;;;34.80;26.20;;;;;;6295125;28;20415;-77
2022/08/11 14:39:17;;;;;;;2.05;0.60;;;34.80;26.50;;;;;;6295262;28;20227;-77
2022/08/11 14:49:00;;;;;;;1.17;0.55;;;34.40;26.50;;;;;;6297207;28;20040;-76
2022/08/11 14:52:04;;;;;;;1.45;0.55;;;34.60;26.70;;;;;;6300423;28;20076;-77
2022/08/11 14:58:32;;;;;;;0.88;0.63;;;34.60;26.80;;;;;;6296216;28;20500;-77
2022/08/11 15:04:54;;;;;;;2.20;0.70;;;34.30;26.20;;;;;;6300074;28;20646;-77
2022/08/11 15:07:58;;;;;;;1.80;0.73;;;34.20;26.60;;;;;;6291508;28;20044;-76
2022/08/11 15:12:07;;;;;;;1.30;0.63;;;34.20;26.60;;;;;;6300005;28;20090;-77
2022/08/11 15:17:40;;;;;;;1.05;0.40;;;34.10;26.70;;;;;;6298894;28;20491;-77
2022/08/11 15:24:23;;;;;;;1.90;0.40;;;33.80;26.80;;;;;;6299628;28;20064;-77
2022/08/11 15:37:34;;;;;;;1.58;0.60;;;33.70;26.40;;;;;;6287710;28;20151;-77
2022/08/11 15:47:25;;;;;;;1.58;0.82;;;34.20;26.10;;;;;;6299785;28;20453;-76
2022/08/11 15:50:31;;;;;;;1.90;0.82;;;34.10;26.30;;;;;;6298863;28;20056;-77
2022/08/11 15:53:39;;;;;;;1.52;0.60;;;33.80;26.20;;;;;;6274606;28;20087;-77
2022/08/11 15:56:44;;;;;;;2.15;0.50;;;33.70;26.20;;;;;;6275286;28;20040;-76
2022/08/11 16:06:30;;;;;;;2.90;0.50;;;33.20;26.60;;;;;;6290534;28;20503;-76
2022/08/11 16:09:35;;;;;;;1.67;0.57;;;33.30;27.40;;;;;;6298792;28;20076;-76
2022/08/11 16:12:41;;;;;;;2.25;0.47;;;33.60;26.80;;;;;;6295300;28;20048;-76
2022/08/11 16:19:09;;;;;;;4.13;0.63;;;33.40;26.60;;;;;;6297680;28;20049;-76
2022/08/11 16:22:12;;;;;;;3.10;0.60;;;33.10;26.70;;;;;;6297307;28;20404;-76
2022/08/11 16:25:18;;;;;;;5.03;1.02;;;33.00;26.90;;;;;;6298318;28;20699;-76
2022/08/11 16:28:21;;;;;;;3.15;0.40;;;33.00;27.00;;;;;;6297342;28;20521;-76
2022/08/11 16:31:25;;;;;;;4.72;1.35;;;32.70;26.80;;;;;;6297431;28;20048;-76
2022/08/11 16:41:09;;;;;;;4.57;0.50;;;32.10;27.20;;;;;;6280955;28;20040;-76
2022/08/11 16:47:34;;;;;;;1.15;0.63;;;31.80;27.20;;;;;;6297185;28;20040;-76
2022/08/11 16:50:38;;;;;;;5.28;0.68;;;31.60;27.50;;;;;;6297245;28;20052;-76
2022/08/11 16:53:43;;;;;;;3.22;0.75;;;31.60;27.50;;;;;;6297478;28;20056;-76
2022/08/11 16:56:48;;;;;;;2.22;0.50;;;31.50;27.50;;;;;;6296827;28;20388;-76
2022/08/11 16:59:51;;;;;;;1.40;0.50;;;31.30;27.60;;;;;;6286960;28;20048;-76
2022/08/11 17:13:10;;;;;;;1.65;0.52;;;30.90;28.20;;;;;;6296796;28;20454;-74
2022/08/11 17:16:14;;;;;;;3.72;0.52;;;30.90;28.20;;;;;;6296090;28;20062;-75
2022/08/11 17:19:21;;;;;;;4.93;0.70;;;30.70;28.10;;;;;;6296776;28;20048;-75
2022/08/11 17:25:46;;;;;;;2.22;0.55;;;30.60;28.50;;;;;;6297370;28;20052;-76
2022/08/11 17:28:55;;;;;;;2.97;0.50;;;30.50;28.60;;;;;;6296187;28;20553;-75
2022/08/11 17:35:29;;;;;;;2.03;0.90;;;30.40;28.90;;;;;;6293575;28;20347;-76
2022/08/11 17:38:32;;;;;;;0.98;0.60;;;30.40;29.00;;;;;;6292526;28;20041;-75
2022/08/11 17:48:27;;;;;;;0.80;0.50;;;30.10;29.40;;;;;;6296773;28;20048;-75
2022/08/11 18:01:34;;;;;;;1.77;1.00;;;29.80;29.90;;;;;;6287119;28;20044;-75
2022/08/11 18:04:36;;;;;;;5.57;0.77;;;29.70;30.00;;;;;;6295960;28;20178;-75
